sensor_id;sensor_type;location;lat;lon;timestamp;P1;durP1;ratioP1;P2;durP2;ratioP2
72974;SDS011;61166;54.228;37.632;2023-07-13T00:00:05;293.05;;;128.82;;
72974;SDS011;61166;54.228;37.632;2023-07-13T00:02:32;304.55;;;132.90;;
72974;SDS011;61166;54.228;37.632;2023-07-13T00:04:58;424.33;;;175.10;;
72974;SDS011;61166;54.228;37.632;2023-07-13T00:07:25;379.02;;;153.60;;
72974;SDS011;61166;54.228;37.632;2023-07-13T00:09:52;385.65;;;156.98;;
72974;SDS011;61166;54.228;37.632;2023-07-13T00:12:26;351.63;;;143.52;;
72974;SDS011;61166;54.228;37.632;2023-07-13T00:14:59;337.67;;;139.77;;
72974;SDS011;61166;54.228;37.632;2023-07-13T00:17:27;304.20;;;129.93;;
72974;SDS011;61166;54.228;37.632;2023-07-13T00:19:55;295.90;;;126.63;;
72974;SDS011;61166;54.228;37.632;2023-07-13T00:22:22;275.95;;;120.45;;
72974;SDS011;61166;54.228;37.632;2023-07-13T00:24:50;285.38;;;123.55;;
72974;SDS011;61166;54.228;37.632;2023-07-13T00:27:16;278.35;;;122.00;;
72974;SDS011;61166;54.228;37.632;2023-07-13T00:29:43;270.70;;;119.87;;
72974;SDS011;61166;54.228;37.632;2023-07-13T00:32:09;411.90;;;169.48;;
72974;SDS011;61166;54.228;37.632;2023-07-13T00:34:37;464.65;;;186.10;;
72974;SDS011;61166;54.228;37.632;2023-07-13T00:37:05;470.23;;;191.05;;
72974;SDS011;61166;54.228;37.632;2023-07-13T00:39:33;423.88;;;165.90;;
72974;SDS011;61166;54.228;37.632;2023-07-13T00:42:01;399.40;;;160.67;;
72974;SDS011;61166;54.228;37.632;2023-07-13T00:44:28;406.20;;;159.35;;
72974;SDS011;61166;54.228;37.632;2023-07-13T00:46:55;381.80;;;152.52;;
72974;SDS011;61166;54.228;37.632;2023-07-13T00:49:22;376.95;;;151.45;;
72974;SDS011;61166;54.228;37.632;2023-07-13T00:51:53;365.73;;;147.63;;
72974;SDS011;61166;54.228;37.632;2023-07-13T00:54:41;372.77;;;150.27;;
72974;SDS011;61166;54.228;37.632;2023-07-13T00:57:15;366.15;;;147.80;;
72974;SDS011;61166;54.228;37.632;2023-07-13T00:59:45;363.73;;;147.43;;
72974;SDS011;61166;54.228;37.632;2023-07-13T01:02:14;421.20;;;167.07;;
72974;SDS011;61166;54.228;37.632;2023-07-13T01:04:41;404.70;;;160.15;;
72974;SDS011;61166;54.228;37.632;2023-07-13T01:07:08;421.03;;;171.10;;
72974;SDS011;61166;54.228;37.632;2023-07-13T01:09:35;423.80;;;172.05;;
72974;SDS011;61166;54.228;37.632;2023-07-13T01:12:01;398.40;;;159.68;;
72974;SDS011;61166;54.228;37.632;2023-07-13T01:14:29;371.63;;;149.50;;
72974;SDS011;61166;54.228;37.632;2023-07-13T01:16:56;427.42;;;170.48;;
72974;SDS011;61166;54.228;37.632;2023-07-13T01:19:36;415.80;;;167.40;;
72974;SDS011;61166;54.228;37.632;2023-07-13T01:22:06;424.67;;;169.98;;
72974;SDS011;61166;54.228;37.632;2023-07-13T01:24:35;412.13;;;164.73;;
72974;SDS011;61166;54.228;37.632;2023-07-13T01:27:02;398.23;;;159.65;;
72974;SDS011;61166;54.228;37.632;2023-07-13T01:29:31;392.15;;;156.95;;
72974;SDS011;61166;54.228;37.632;2023-07-13T01:31:58;389.30;;;156.17;;
72974;SDS011;61166;54.228;37.632;2023-07-13T01:34:26;379.13;;;153.40;;
72974;SDS011;61166;54.228;37.632;2023-07-13T01:36:53;369.38;;;150.82;;
72974;SDS011;61166;54.228;37.632;2023-07-13T01:39:21;364.63;;;149.05;;
72974;SDS011;61166;54.228;37.632;2023-07-13T01:41:48;368.05;;;149.63;;
72974;SDS011;61166;54.228;37.632;2023-07-13T01:44:15;353.43;;;145.13;;
72974;SDS011;61166;54.228;37.632;2023-07-13T01:46:41;346.05;;;143.25;;
72974;SDS011;61166;54.228;37.632;2023-07-13T01:49:08;334.15;;;139.80;;
72974;SDS011;61166;54.228;37.632;2023-07-13T01:51:35;330.27;;;138.30;;
72974;SDS011;61166;54.228;37.632;2023-07-13T01:54:01;330.13;;;137.95;;
72974;SDS011;61166;54.228;37.632;2023-07-13T01:56:28;337.23;;;140.70;;
72974;SDS011;61166;54.228;37.632;2023-07-13T01:58:54;322.67;;;135.68;;
72974;SDS011;61166;54.228;37.632;2023-07-13T02:01:21;326.77;;;137.77;;
72974;SDS011;61166;54.228;37.632;2023-07-13T02:03:47;316.67;;;134.60;;
72974;SDS011;61166;54.228;37.632;2023-07-13T02:06:14;317.17;;;134.25;;
72974;SDS011;61166;54.228;37.632;2023-07-13T02:08:41;319.17;;;134.47;;
72974;SDS011;61166;54.228;37.632;2023-07-13T02:11:07;313.60;;;133.30;;
72974;SDS011;61166;54.228;37.632;2023-07-13T02:13:35;305.00;;;130.65;;
72974;SDS011;61166;54.228;37.632;2023-07-13T02:16:01;305.98;;;131.73;;
72974;SDS011;61166;54.228;37.632;2023-07-13T02:18:28;303.23;;;129.82;;
72974;SDS011;61166;54.228;37.632;2023-07-13T02:20:54;297.60;;;128.93;;
72974;SDS011;61166;54.228;37.632;2023-07-13T02:23:21;300.65;;;129.00;;
72974;SDS011;61166;54.228;37.632;2023-07-13T02:25:47;300.70;;;128.85;;
72974;SDS011;61166;54.228;37.632;2023-07-13T02:28:14;302.90;;;129.50;;
72974;SDS011;61166;54.228;37.632;2023-07-13T02:30:41;302.38;;;129.77;;
72974;SDS011;61166;54.228;37.632;2023-07-13T02:33:08;301.27;;;129.20;;
72974;SDS011;61166;54.228;37.632;2023-07-13T02:35:34;298.85;;;128.82;;
72974;SDS011;61166;54.228;37.632;2023-07-13T02:38:01;301.23;;;128.70;;
72974;SDS011;61166;54.228;37.632;2023-07-13T02:40:27;299.50;;;128.55;;
72974;SDS011;61166;54.228;37.632;2023-07-13T02:42:54;302.42;;;129.10;;
72974;SDS011;61166;54.228;37.632;2023-07-13T02:45:20;299.03;;;128.47;;
72974;SDS011;61166;54.228;37.632;2023-07-13T02:47:47;297.50;;;127.90;;
72974;SDS011;61166;54.228;37.632;2023-07-13T02:50:14;290.55;;;125.53;;
72974;SDS011;61166;54.228;37.632;2023-07-13T02:52:40;288.35;;;125.15;;
72974;SDS011;61166;54.228;37.632;2023-07-13T02:55:07;288.95;;;125.78;;
72974;SDS011;61166;54.228;37.632;2023-07-13T02:57:34;288.23;;;125.43;;
72974;SDS011;61166;54.228;37.632;2023-07-13T03:00:02;285.67;;;124.05;;
72974;SDS011;61166;54.228;37.632;2023-07-13T03:02:30;288.17;;;124.68;;
72974;SDS011;61166;54.228;37.632;2023-07-13T03:04:58;290.80;;;125.93;;
72974;SDS011;61166;54.228;37.632;2023-07-13T03:07:26;289.83;;;125.75;;
72974;SDS011;61166;54.228;37.632;2023-07-13T03:09:56;288.07;;;124.10;;
72974;SDS011;61166;54.228;37.632;2023-07-13T03:12:23;290.65;;;126.28;;
72974;SDS011;61166;54.228;37.632;2023-07-13T03:14:50;287.88;;;124.18;;
72974;SDS011;61166;54.228;37.632;2023-07-13T03:17:17;291.30;;;124.78;;
72974;SDS011;61166;54.228;37.632;2023-07-13T03:19:44;289.38;;;124.85;;
72974;SDS011;61166;54.228;37.632;2023-07-13T03:22:10;288.93;;;125.27;;
72974;SDS011;61166;54.228;37.632;2023-07-13T03:24:37;284.13;;;123.32;;
72974;SDS011;61166;54.228;37.632;2023-07-13T03:27:05;288.15;;;124.88;;
72974;SDS011;61166;54.228;37.632;2023-07-13T03:29:32;285.80;;;123.95;;
72974;SDS011;61166;54.228;37.632;2023-07-13T03:31:59;284.98;;;124.30;;
72974;SDS011;61166;54.228;37.632;2023-07-13T03:34:25;284.87;;;123.17;;
72974;SDS011;61166;54.228;37.632;2023-07-13T03:36:55;289.88;;;125.43;;
72974;SDS011;61166;54.228;37.632;2023-07-13T03:39:21;283.10;;;123.15;;
72974;SDS011;61166;54.228;37.632;2023-07-13T03:41:49;288.38;;;125.35;;
72974;SDS011;61166;54.228;37.632;2023-07-13T03:44:16;283.08;;;123.15;;
72974;SDS011;61166;54.228;37.632;2023-07-13T03:46:43;275.43;;;121.03;;
72974;SDS011;61166;54.228;37.632;2023-07-13T03:49:11;276.67;;;120.30;;
72974;SDS011;61166;54.228;37.632;2023-07-13T03:51:37;281.50;;;123.15;;
72974;SDS011;61166;54.228;37.632;2023-07-13T03:54:04;282.70;;;122.75;;
72974;SDS011;61166;54.228;37.632;2023-07-13T03:56:31;282.77;;;123.25;;
72974;SDS011;61166;54.228;37.632;2023-07-13T03:58:57;283.03;;;123.33;;
72974;SDS011;61166;54.228;37.632;2023-07-13T04:01:24;284.05;;;123.50;;
72974;SDS011;61166;54.228;37.632;2023-07-13T04:03:51;279.20;;;122.53;;
72974;SDS011;61166;54.228;37.632;2023-07-13T04:06:21;282.23;;;122.50;;
72974;SDS011;61166;54.228;37.632;2023-07-13T04:08:50;281.25;;;122.18;;
72974;SDS011;61166;54.228;37.632;2023-07-13T04:11:19;276.37;;;121.40;;
72974;SDS011;61166;54.228;37.632;2023-07-13T04:13:47;276.30;;;121.55;;
72974;SDS011;61166;54.228;37.632;2023-07-13T04:16:14;280.67;;;122.65;;
72974;SDS011;61166;54.228;37.632;2023-07-13T04:18:42;280.58;;;122.30;;
72974;SDS011;61166;54.228;37.632;2023-07-13T04:21:08;275.02;;;121.35;;
72974;SDS011;61166;54.228;37.632;2023-07-13T04:23:36;268.53;;;118.40;;
72974;SDS011;61166;54.228;37.632;2023-07-13T04:26:03;269.60;;;118.70;;
72974;SDS011;61166;54.228;37.632;2023-07-13T04:28:31;270.10;;;119.13;;
72974;SDS011;61166;54.228;37.632;2023-07-13T04:30:57;267.98;;;117.97;;
72974;SDS011;61166;54.228;37.632;2023-07-13T04:33:24;264.85;;;117.43;;
72974;SDS011;61166;54.228;37.632;2023-07-13T04:35:51;265.37;;;117.67;;
72974;SDS011;61166;54.228;37.632;2023-07-13T04:38:19;263.30;;;116.35;;
72974;SDS011;61166;54.228;37.632;2023-07-13T04:40:46;255.82;;;113.13;;
72974;SDS011;61166;54.228;37.632;2023-07-13T04:43:13;247.82;;;112.30;;
72974;SDS011;61166;54.228;37.632;2023-07-13T04:45:40;246.65;;;110.78;;
72974;SDS011;61166;54.228;37.632;2023-07-13T04:48:07;249.83;;;111.97;;
72974;SDS011;61166;54.228;37.632;2023-07-13T04:50:36;243.38;;;110.93;;
72974;SDS011;61166;54.228;37.632;2023-07-13T04:53:03;240.10;;;109.80;;
72974;SDS011;61166;54.228;37.632;2023-07-13T04:55:30;239.40;;;108.65;;
72974;SDS011;61166;54.228;37.632;2023-07-13T04:57:57;240.65;;;109.43;;
72974;SDS011;61166;54.228;37.632;2023-07-13T05:00:24;237.80;;;109.03;;
72974;SDS011;61166;54.228;37.632;2023-07-13T05:02:52;236.82;;;108.18;;
72974;SDS011;61166;54.228;37.632;2023-07-13T05:05:20;236.48;;;108.10;;
72974;SDS011;61166;54.228;37.632;2023-07-13T05:07:46;235.75;;;108.32;;
72974;SDS011;61166;54.228;37.632;2023-07-13T05:10:14;234.48;;;107.88;;
72974;SDS011;61166;54.228;37.632;2023-07-13T05:12:41;231.37;;;105.87;;
72974;SDS011;61166;54.228;37.632;2023-07-13T05:15:10;233.30;;;106.88;;
72974;SDS011;61166;54.228;37.632;2023-07-13T05:17:38;232.65;;;106.78;;
72974;SDS011;61166;54.228;37.632;2023-07-13T05:20:05;234.35;;;107.25;;
72974;SDS011;61166;54.228;37.632;2023-07-13T05:22:32;228.10;;;106.00;;
72974;SDS011;61166;54.228;37.632;2023-07-13T05:24:59;228.63;;;106.13;;
72974;SDS011;61166;54.228;37.632;2023-07-13T05:27:25;228.18;;;105.55;;
72974;SDS011;61166;54.228;37.632;2023-07-13T05:29:52;228.18;;;106.43;;
72974;SDS011;61166;54.228;37.632;2023-07-13T05:32:18;229.30;;;105.88;;
72974;SDS011;61166;54.228;37.632;2023-07-13T05:34:45;230.48;;;106.53;;
72974;SDS011;61166;54.228;37.632;2023-07-13T05:37:12;231.57;;;106.77;;
72974;SDS011;61166;54.228;37.632;2023-07-13T05:39:38;231.48;;;106.93;;
72974;SDS011;61166;54.228;37.632;2023-07-13T05:42:05;231.40;;;106.40;;
72974;SDS011;61166;54.228;37.632;2023-07-13T05:44:31;227.63;;;106.35;;
72974;SDS011;61166;54.228;37.632;2023-07-13T05:46:58;220.80;;;104.50;;
72974;SDS011;61166;54.228;37.632;2023-07-13T05:49:25;215.10;;;101.90;;
72974;SDS011;61166;54.228;37.632;2023-07-13T05:51:51;211.48;;;101.03;;
72974;SDS011;61166;54.228;37.632;2023-07-13T05:54:18;211.02;;;102.32;;
72974;SDS011;61166;54.228;37.632;2023-07-13T05:56:44;207.30;;;100.65;;
72974;SDS011;61166;54.228;37.632;2023-07-13T05:59:11;208.02;;;101.05;;
72974;SDS011;61166;54.228;37.632;2023-07-13T06:01:39;210.30;;;102.03;;
72974;SDS011;61166;54.228;37.632;2023-07-13T06:04:05;209.52;;;101.28;;
72974;SDS011;61166;54.228;37.632;2023-07-13T06:06:32;205.77;;;100.82;;
72974;SDS011;61166;54.228;37.632;2023-07-13T06:09:00;189.88;;;97.57;;
72974;SDS011;61166;54.228;37.632;2023-07-13T06:11:27;177.98;;;94.45;;
72974;SDS011;61166;54.228;37.632;2023-07-13T06:13:54;153.23;;;85.90;;
72974;SDS011;61166;54.228;37.632;2023-07-13T06:16:21;139.80;;;80.90;;
72974;SDS011;61166;54.228;37.632;2023-07-13T06:18:48;122.07;;;75.72;;
72974;SDS011;61166;54.228;37.632;2023-07-13T06:21:16;110.57;;;71.97;;
72974;SDS011;61166;54.228;37.632;2023-07-13T06:23:46;108.22;;;70.80;;
72974;SDS011;61166;54.228;37.632;2023-07-13T06:26:13;104.40;;;69.77;;
72974;SDS011;61166;54.228;37.632;2023-07-13T06:28:40;106.25;;;68.93;;
72974;SDS011;61166;54.228;37.632;2023-07-13T06:31:09;106.38;;;69.00;;
72974;SDS011;61166;54.228;37.632;2023-07-13T06:33:37;111.28;;;70.85;;
72974;SDS011;61166;54.228;37.632;2023-07-13T06:36:04;119.00;;;72.97;;
72974;SDS011;61166;54.228;37.632;2023-07-13T06:38:31;119.50;;;73.53;;
72974;SDS011;61166;54.228;37.632;2023-07-13T06:40:58;117.57;;;73.00;;
72974;SDS011;61166;54.228;37.632;2023-07-13T06:43:25;120.30;;;74.53;;
72974;SDS011;61166;54.228;37.632;2023-07-13T06:45:53;120.82;;;74.13;;
72974;SDS011;61166;54.228;37.632;2023-07-13T06:48:21;132.70;;;77.22;;
72974;SDS011;61166;54.228;37.632;2023-07-13T06:50:48;135.97;;;78.50;;
72974;SDS011;61166;54.228;37.632;2023-07-13T06:53:17;139.05;;;79.75;;
72974;SDS011;61166;54.228;37.632;2023-07-13T06:55:44;129.00;;;77.07;;
72974;SDS011;61166;54.228;37.632;2023-07-13T06:58:12;126.25;;;75.38;;
72974;SDS011;61166;54.228;37.632;2023-07-13T07:00:39;128.65;;;76.15;;
72974;SDS011;61166;54.228;37.632;2023-07-13T07:03:06;132.60;;;75.67;;
72974;SDS011;61166;54.228;37.632;2023-07-13T07:05:33;121.90;;;73.57;;
72974;SDS011;61166;54.228;37.632;2023-07-13T07:08:00;116.78;;;72.70;;
72974;SDS011;61166;54.228;37.632;2023-07-13T07:10:28;114.55;;;70.97;;
72974;SDS011;61166;54.228;37.632;2023-07-13T07:12:56;110.03;;;69.75;;
72974;SDS011;61166;54.228;37.632;2023-07-13T07:15:22;106.77;;;69.60;;
72974;SDS011;61166;54.228;37.632;2023-07-13T07:17:49;110.55;;;70.20;;
72974;SDS011;61166;54.228;37.632;2023-07-13T07:20:15;116.72;;;71.55;;
72974;SDS011;61166;54.228;37.632;2023-07-13T07:22:42;108.47;;;70.22;;
72974;SDS011;61166;54.228;37.632;2023-07-13T07:25:09;121.28;;;74.28;;
72974;SDS011;61166;54.228;37.632;2023-07-13T07:27:36;121.77;;;73.70;;
72974;SDS011;61166;54.228;37.632;2023-07-13T07:30:05;134.85;;;77.13;;
72974;SDS011;61166;54.228;37.632;2023-07-13T07:32:35;128.50;;;75.05;;
72974;SDS011;61166;54.228;37.632;2023-07-13T07:35:05;141.00;;;81.47;;
72974;SDS011;61166;54.228;37.632;2023-07-13T07:37:35;146.65;;;82.28;;
72974;SDS011;61166;54.228;37.632;2023-07-13T07:40:05;151.20;;;82.90;;
72974;SDS011;61166;54.228;37.632;2023-07-13T07:42:35;155.38;;;84.13;;
72974;SDS011;61166;54.228;37.632;2023-07-13T07:45:01;156.98;;;85.47;;
72974;SDS011;61166;54.228;37.632;2023-07-13T07:47:29;157.30;;;84.03;;
72974;SDS011;61166;54.228;37.632;2023-07-13T07:49:55;161.60;;;86.95;;
72974;SDS011;61166;54.228;37.632;2023-07-13T07:52:22;166.90;;;87.03;;
72974;SDS011;61166;54.228;37.632;2023-07-13T07:54:48;160.32;;;85.28;;
72974;SDS011;61166;54.228;37.632;2023-07-13T07:57:18;163.45;;;87.05;;
72974;SDS011;61166;54.228;37.632;2023-07-13T08:00:05;171.52;;;89.32;;
72974;SDS011;61166;54.228;37.632;2023-07-13T08:02:35;173.70;;;89.22;;
72974;SDS011;61166;54.228;37.632;2023-07-13T08:05:04;178.83;;;89.23;;
72974;SDS011;61166;54.228;37.632;2023-07-13T08:07:34;167.45;;;88.35;;
72974;SDS011;61166;54.228;37.632;2023-07-13T08:10:01;167.23;;;86.72;;
72974;SDS011;61166;54.228;37.632;2023-07-13T08:12:28;163.63;;;86.30;;
72974;SDS011;61166;54.228;37.632;2023-07-13T08:14:58;166.07;;;87.82;;
72974;SDS011;61166;54.228;37.632;2023-07-13T08:17:24;167.03;;;88.03;;
72974;SDS011;61166;54.228;37.632;2023-07-13T08:19:51;168.70;;;88.78;;
72974;SDS011;61166;54.228;37.632;2023-07-13T08:22:18;175.45;;;90.97;;
72974;SDS011;61166;54.228;37.632;2023-07-13T08:24:45;172.55;;;89.40;;
72974;SDS011;61166;54.228;37.632;2023-07-13T08:27:11;174.02;;;89.93;;
72974;SDS011;61166;54.228;37.632;2023-07-13T08:29:38;181.23;;;91.13;;
72974;SDS011;61166;54.228;37.632;2023-07-13T08:32:06;183.65;;;92.97;;
72974;SDS011;61166;54.228;37.632;2023-07-13T08:34:33;181.02;;;92.50;;
72974;SDS011;61166;54.228;37.632;2023-07-13T08:37:00;184.38;;;92.80;;
72974;SDS011;61166;54.228;37.632;2023-07-13T08:39:26;188.00;;;93.50;;
72974;SDS011;61166;54.228;37.632;2023-07-13T08:41:56;195.53;;;95.93;;
72974;SDS011;61166;54.228;37.632;2023-07-13T08:45:04;183.70;;;93.07;;
72974;SDS011;61166;54.228;37.632;2023-07-13T08:47:40;186.40;;;92.97;;
72974;SDS011;61166;54.228;37.632;2023-07-13T08:50:12;212.82;;;100.75;;
72974;SDS011;61166;54.228;37.632;2023-07-13T08:52:41;182.07;;;91.93;;
72974;SDS011;61166;54.228;37.632;2023-07-13T08:55:17;175.30;;;89.50;;
72974;SDS011;61166;54.228;37.632;2023-07-13T08:57:54;173.63;;;89.82;;
72974;SDS011;61166;54.228;37.632;2023-07-13T09:00:33;189.98;;;95.57;;
72974;SDS011;61166;54.228;37.632;2023-07-13T09:03:07;179.65;;;90.88;;
72974;SDS011;61166;54.228;37.632;2023-07-13T09:05:44;200.88;;;97.90;;
72974;SDS011;61166;54.228;37.632;2023-07-13T09:11:10;224.02;;;104.00;;
72974;SDS011;61166;54.228;37.632;2023-07-13T09:17:18;255.77;;;113.05;;
72974;SDS011;61166;54.228;37.632;2023-07-13T09:19:48;284.90;;;122.00;;
72974;SDS011;61166;54.228;37.632;2023-07-13T09:22:23;306.97;;;127.73;;
72974;SDS011;61166;54.228;37.632;2023-07-13T09:25:00;287.27;;;122.22;;
72974;SDS011;61166;54.228;37.632;2023-07-13T09:27:38;325.30;;;131.13;;
72974;SDS011;61166;54.228;37.632;2023-07-13T09:32:39;333.90;;;133.88;;
72974;SDS011;61166;54.228;37.632;2023-07-13T09:35:14;337.03;;;134.07;;
72974;SDS011;61166;54.228;37.632;2023-07-13T09:37:44;336.55;;;134.23;;
72974;SDS011;61166;54.228;37.632;2023-07-13T09:40:25;347.75;;;137.75;;
72974;SDS011;61166;54.228;37.632;2023-07-13T09:43:13;404.02;;;152.23;;
72974;SDS011;61166;54.228;37.632;2023-07-13T09:45:41;381.42;;;146.65;;
72974;SDS011;61166;54.228;37.632;2023-07-13T09:48:12;406.03;;;152.67;;
72974;SDS011;61166;54.228;37.632;2023-07-13T09:50:40;385.08;;;147.32;;
72974;SDS011;61166;54.228;37.632;2023-07-13T09:53:12;376.67;;;146.50;;
72974;SDS011;61166;54.228;37.632;2023-07-13T09:55:43;418.13;;;156.50;;
72974;SDS011;61166;54.228;37.632;2023-07-13T09:58:20;408.98;;;154.52;;
72974;SDS011;61166;54.228;37.632;2023-07-13T10:00:58;402.20;;;151.93;;
72974;SDS011;61166;54.228;37.632;2023-07-13T10:03:29;430.00;;;157.60;;
72974;SDS011;61166;54.228;37.632;2023-07-13T10:06:00;415.10;;;154.70;;
72974;SDS011;61166;54.228;37.632;2023-07-13T10:08:38;402.67;;;152.38;;
72974;SDS011;61166;54.228;37.632;2023-07-13T10:11:12;395.75;;;150.35;;
72974;SDS011;61166;54.228;37.632;2023-07-13T10:13:56;461.73;;;170.63;;
72974;SDS011;61166;54.228;37.632;2023-07-13T10:16:25;479.92;;;177.98;;
72974;SDS011;61166;54.228;37.632;2023-07-13T10:18:57;485.60;;;183.18;;
72974;SDS011;61166;54.228;37.632;2023-07-13T10:21:28;463.65;;;171.90;;
72974;SDS011;61166;54.228;37.632;2023-07-13T10:24:13;455.48;;;169.63;;
72974;SDS011;61166;54.228;37.632;2023-07-13T10:26:46;467.20;;;172.43;;
72974;SDS011;61166;54.228;37.632;2023-07-13T10:29:18;476.73;;;176.35;;
72974;SDS011;61166;54.228;37.632;2023-07-13T10:31:48;452.88;;;165.57;;
72974;SDS011;61166;54.228;37.632;2023-07-13T10:34:15;456.40;;;167.93;;
72974;SDS011;61166;54.228;37.632;2023-07-13T10:36:42;448.02;;;165.15;;
72974;SDS011;61166;54.228;37.632;2023-07-13T10:41:44;512.47;;;194.57;;
72974;SDS011;61166;54.228;37.632;2023-07-13T10:44:18;522.75;;;201.73;;
72974;SDS011;61166;54.228;37.632;2023-07-13T10:46:48;522.83;;;195.85;;
72974;SDS011;61166;54.228;37.632;2023-07-13T10:49:15;512.42;;;193.98;;
72974;SDS011;61166;54.228;37.632;2023-07-13T10:51:44;499.17;;;188.33;;
72974;SDS011;61166;54.228;37.632;2023-07-13T10:54:15;486.42;;;180.60;;
72974;SDS011;61166;54.228;37.632;2023-07-13T10:57:06;496.58;;;186.73;;
72974;SDS011;61166;54.228;37.632;2023-07-13T10:59:35;495.90;;;187.13;;
72974;SDS011;61166;54.228;37.632;2023-07-13T11:04:29;485.20;;;182.00;;
72974;SDS011;61166;54.228;37.632;2023-07-13T11:07:17;485.05;;;181.52;;
72974;SDS011;61166;54.228;37.632;2023-07-13T11:09:49;526.42;;;201.35;;
72974;SDS011;61166;54.228;37.632;2023-07-13T11:18:12;544.20;;;208.77;;
72974;SDS011;61166;54.228;37.632;2023-07-13T11:22:49;507.30;;;192.35;;
72974;SDS011;61166;54.228;37.632;2023-07-13T11:25:34;508.58;;;192.52;;
72974;SDS011;61166;54.228;37.632;2023-07-13T11:33:22;515.45;;;194.13;;
72974;SDS011;61166;54.228;37.632;2023-07-13T11:35:57;506.00;;;191.63;;
72974;SDS011;61166;54.228;37.632;2023-07-13T11:38:28;490.30;;;183.70;;
72974;SDS011;61166;54.228;37.632;2023-07-13T11:40:58;480.65;;;179.25;;
72974;SDS011;61166;54.228;37.632;2023-07-13T11:43:29;479.77;;;178.17;;
72974;SDS011;61166;54.228;37.632;2023-07-13T11:45:55;468.35;;;173.02;;
72974;SDS011;61166;54.228;37.632;2023-07-13T11:51:04;454.58;;;166.95;;
72974;SDS011;61166;54.228;37.632;2023-07-13T11:53:38;454.58;;;166.65;;
72974;SDS011;61166;54.228;37.632;2023-07-13T11:56:06;457.63;;;166.00;;
72974;SDS011;61166;54.228;37.632;2023-07-13T11:58:34;455.30;;;165.52;;
72974;SDS011;61166;54.228;37.632;2023-07-13T12:01:02;460.42;;;168.35;;
72974;SDS011;61166;54.228;37.632;2023-07-13T12:03:29;474.08;;;176.00;;
72974;SDS011;61166;54.228;37.632;2023-07-13T12:06:00;451.35;;;165.52;;
72974;SDS011;61166;54.228;37.632;2023-07-13T12:08:37;461.73;;;168.57;;
72974;SDS011;61166;54.228;37.632;2023-07-13T12:11:16;462.00;;;168.20;;
72974;SDS011;61166;54.228;37.632;2023-07-13T12:13:44;429.05;;;158.48;;
72974;SDS011;61166;54.228;37.632;2023-07-13T12:16:17;418.05;;;155.75;;
72974;SDS011;61166;54.228;37.632;2023-07-13T12:18:55;422.27;;;156.00;;
72974;SDS011;61166;54.228;37.632;2023-07-13T12:21:28;410.00;;;153.70;;
72974;SDS011;61166;54.228;37.632;2023-07-13T12:23:58;423.20;;;155.93;;
72974;SDS011;61166;54.228;37.632;2023-07-13T12:26:25;431.08;;;159.25;;
72974;SDS011;61166;54.228;37.632;2023-07-13T12:28:52;436.13;;;158.23;;
72974;SDS011;61166;54.228;37.632;2023-07-13T12:31:25;417.52;;;155.25;;
72974;SDS011;61166;54.228;37.632;2023-07-13T12:34:01;415.90;;;154.77;;
72974;SDS011;61166;54.228;37.632;2023-07-13T12:36:49;419.35;;;154.23;;
72974;SDS011;61166;54.228;37.632;2023-07-13T12:45:01;669.95;;;263.35;;
72974;SDS011;61166;54.228;37.632;2023-07-13T12:47:38;661.30;;;258.23;;
72974;SDS011;61166;54.228;37.632;2023-07-13T12:50:15;584.40;;;222.93;;
72974;SDS011;61166;54.228;37.632;2023-07-13T12:52:53;533.95;;;201.88;;
72974;SDS011;61166;54.228;37.632;2023-07-13T12:55:22;529.83;;;200.80;;
72974;SDS011;61166;54.228;37.632;2023-07-13T12:57:52;508.73;;;193.60;;
72974;SDS011;61166;54.228;37.632;2023-07-13T13:00:30;609.07;;;232.67;;
72974;SDS011;61166;54.228;37.632;2023-07-13T13:06:02;100.50;;;60.22;;
72974;SDS011;61166;54.228;37.632;2023-07-13T13:08:35;108.65;;;69.40;;
72974;SDS011;61166;54.228;37.632;2023-07-13T13:11:02;40.65;;;22.45;;
72974;SDS011;61166;54.228;37.632;2023-07-13T13:13:29;12.10;;;4.93;;
72974;SDS011;61166;54.228;37.632;2023-07-13T13:15:56;10.70;;;4.60;;
72974;SDS011;61166;54.228;37.632;2023-07-13T13:18:27;9.75;;;5.07;;
72974;SDS011;61166;54.228;37.632;2023-07-13T13:20:55;7.43;;;4.40;;
72974;SDS011;61166;54.228;37.632;2023-07-13T13:23:22;121.75;;;63.90;;
72974;SDS011;61166;54.228;37.632;2023-07-13T13:25:49;30.80;;;15.83;;
72974;SDS011;61166;54.228;37.632;2023-07-13T13:28:17;11.93;;;6.20;;
72974;SDS011;61166;54.228;37.632;2023-07-13T13:30:46;6.70;;;4.10;;
72974;SDS011;61166;54.228;37.632;2023-07-13T13:33:15;14.63;;;5.82;;
72974;SDS011;61166;54.228;37.632;2023-07-13T13:35:43;27.00;;;11.95;;
72974;SDS011;61166;54.228;37.632;2023-07-13T13:38:11;13.90;;;6.30;;
72974;SDS011;61166;54.228;37.632;2023-07-13T13:40:40;24.60;;;11.80;;
72974;SDS011;61166;54.228;37.632;2023-07-13T13:43:13;14.90;;;7.45;;
72974;SDS011;61166;54.228;37.632;2023-07-13T13:45:44;11.60;;;5.18;;
72974;SDS011;61166;54.228;37.632;2023-07-13T13:48:18;8.30;;;4.53;;
72974;SDS011;61166;54.228;37.632;2023-07-13T13:50:47;9.03;;;4.27;;
72974;SDS011;61166;54.228;37.632;2023-07-13T13:53:15;9.52;;;4.35;;
72974;SDS011;61166;54.228;37.632;2023-07-13T13:55:41;10.05;;;4.43;;
72974;SDS011;61166;54.228;37.632;2023-07-13T13:58:09;21.60;;;10.70;;
72974;SDS011;61166;54.228;37.632;2023-07-13T14:00:38;475.60;;;179.70;;
72974;SDS011;61166;54.228;37.632;2023-07-13T14:03:13;251.70;;;105.17;;
72974;SDS011;61166;54.228;37.632;2023-07-13T14:05:41;231.18;;;97.38;;
72974;SDS011;61166;54.228;37.632;2023-07-13T14:08:18;372.90;;;148.05;;
72974;SDS011;61166;54.228;37.632;2023-07-13T14:10:47;426.33;;;160.07;;
72974;SDS011;61166;54.228;37.632;2023-07-13T14:13:18;468.55;;;176.07;;
72974;SDS011;61166;54.228;37.632;2023-07-13T14:15:48;316.10;;;127.13;;
72974;SDS011;61166;54.228;37.632;2023-07-13T14:18:15;387.88;;;150.27;;
72974;SDS011;61166;54.228;37.632;2023-07-13T14:20:41;24.02;;;9.75;;
72974;SDS011;61166;54.228;37.632;2023-07-13T14:23:08;20.15;;;10.00;;
72974;SDS011;61166;54.228;37.632;2023-07-13T14:25:35;102.38;;;41.35;;
72974;SDS011;61166;54.228;37.632;2023-07-13T14:28:10;234.10;;;108.93;;
72974;SDS011;61166;54.228;37.632;2023-07-13T14:30:46;42.20;;;32.97;;
72974;SDS011;61166;54.228;37.632;2023-07-13T14:33:13;14.02;;;5.03;;
72974;SDS011;61166;54.228;37.632;2023-07-13T14:35:39;110.97;;;49.50;;
72974;SDS011;61166;54.228;37.632;2023-07-13T14:38:07;186.63;;;90.38;;